createdAt,value
2023-09-08T00:08:20.410Z,13.87
2023-09-08T00:10:48.092Z,13.82
2023-09-08T00:13:15.636Z,13.79
2023-09-08T00:15:43.237Z,13.77
2023-09-08T00:18:11.149Z,13.74
2023-09-08T00:20:38.850Z,13.71
2023-09-08T00:23:06.348Z,13.68
2023-09-08T00:25:33.852Z,13.66
2023-09-08T00:28:01.630Z,13.64
2023-09-08T00:30:29.140Z,13.62
2023-09-08T00:32:56.917Z,13.58
2023-09-08T00:35:24.548Z,13.56
2023-09-08T00:37:52.067Z,13.54
2023-09-08T00:40:19.748Z,13.50
2023-09-08T00:42:48.247Z,13.47
2023-09-08T00:45:15.785Z,13.43
2023-09-08T00:47:43.387Z,13.40
2023-09-08T00:50:11.228Z,13.37
2023-09-08T00:52:39.000Z,13.35
2023-09-08T00:55:06.858Z,13.33
2023-09-08T00:57:34.407Z,13.32
2023-09-08T01:00:02.002Z,13.30
2023-09-08T01:02:29.737Z,13.28
2023-09-08T01:04:57.480Z,13.26
2023-09-08T01:07:24.986Z,13.23
2023-09-08T01:09:52.591Z,13.21
2023-09-08T01:12:20.441Z,13.19
2023-09-08T01:14:48.194Z,13.16
2023-09-08T01:17:15.752Z,13.14
2023-09-08T01:19:43.214Z,13.10
2023-09-08T01:22:30.351Z,13.08
2023-09-08T01:25:13.208Z,13.04
2023-09-08T01:27:43.818Z,12.99
2023-09-08T01:30:11.348Z,12.95
2023-09-08T01:32:38.850Z,12.92
2023-09-08T01:35:06.799Z,12.88
2023-09-08T01:37:34.292Z,12.84
2023-09-08T01:40:01.880Z,12.81
2023-09-08T01:42:29.429Z,12.80
2023-09-08T01:44:57.059Z,12.77
2023-09-08T01:47:24.542Z,12.73
2023-09-08T01:49:52.051Z,12.69
2023-09-08T01:52:20.582Z,12.67
2023-09-08T01:54:48.105Z,12.65
2023-09-08T01:57:15.661Z,12.64
2023-09-08T01:59:43.151Z,12.62
2023-09-08T02:02:10.646Z,12.61
2023-09-08T02:04:38.597Z,12.59
2023-09-08T02:07:06.254Z,12.57
2023-09-08T02:09:34.432Z,12.55
2023-09-08T02:12:02.162Z,12.53
2023-09-08T02:14:30.141Z,12.52
2023-09-08T02:16:58.021Z,12.50
2023-09-08T02:19:25.721Z,12.48
2023-09-08T02:21:53.264Z,12.47
2023-09-08T02:24:20.886Z,12.47
2023-09-08T02:26:48.642Z,12.47
2023-09-08T02:29:16.432Z,12.47
2023-09-08T02:31:44.533Z,12.47
2023-09-08T02:34:13.791Z,12.46
2023-09-08T02:36:41.585Z,12.46
2023-09-08T02:39:09.266Z,12.47
2023-09-08T02:41:36.841Z,12.48
2023-09-08T02:44:04.988Z,12.48
2023-09-08T02:46:32.836Z,12.47
2023-09-08T02:49:00.680Z,12.46
2023-09-08T02:51:28.871Z,12.45
2023-09-08T02:53:56.385Z,12.44
2023-09-08T02:56:23.957Z,12.43
2023-09-08T02:58:51.435Z,12.42
2023-09-08T03:01:21.758Z,12.40
2023-09-08T03:03:49.904Z,12.39
2023-09-08T03:06:20.351Z,12.38
2023-09-08T03:08:47.889Z,12.37
2023-09-08T03:11:15.827Z,12.35
2023-09-08T03:13:43.545Z,12.33
2023-09-08T03:16:12.121Z,12.32
2023-09-08T03:18:39.947Z,12.30
2023-09-08T03:21:10.996Z,12.28
2023-09-08T03:23:39.599Z,12.27
2023-09-08T03:26:07.626Z,12.26
2023-09-08T03:28:36.012Z,12.26
2023-09-08T03:31:04.014Z,12.25
2023-09-08T03:33:33.675Z,12.24
2023-09-08T03:36:02.204Z,12.24
2023-09-08T03:38:30.708Z,12.23
2023-09-08T03:40:58.389Z,12.20
2023-09-08T03:43:25.969Z,12.19
2023-09-08T03:45:53.530Z,12.17
2023-09-08T03:48:21.265Z,12.14
2023-09-08T03:50:48.736Z,12.10
2023-09-08T03:53:16.371Z,12.05
2023-09-08T03:55:43.839Z,11.99
2023-09-08T03:58:11.330Z,11.96
2023-09-08T04:00:38.940Z,11.96
2023-09-08T04:03:06.472Z,11.97
2023-09-08T04:05:34.040Z,11.99
2023-09-08T04:08:02.551Z,12.01
2023-09-08T04:10:30.168Z,12.05
2023-09-08T04:12:57.779Z,12.07
2023-09-08T04:15:25.333Z,12.09
2023-09-08T04:17:52.937Z,12.09
2023-09-08T04:20:20.942Z,12.09
2023-09-08T04:22:48.931Z,12.08
2023-09-08T04:25:16.570Z,12.09
2023-09-08T04:27:45.795Z,12.09
2023-09-08T04:30:14.301Z,12.10
2023-09-08T04:32:42.046Z,12.09
2023-09-08T04:35:09.765Z,12.08
2023-09-08T04:37:38.096Z,12.08
2023-09-08T04:40:07.238Z,12.07
2023-09-08T04:42:34.847Z,12.08
2023-09-08T04:45:02.710Z,12.10
2023-09-08T04:47:30.623Z,12.12
2023-09-08T04:49:58.374Z,12.16
2023-09-08T04:52:26.315Z,12.20
2023-09-08T04:54:53.865Z,12.24
2023-09-08T04:57:23.832Z,12.28
2023-09-08T04:59:54.652Z,12.33
2023-09-08T05:02:22.610Z,12.38
2023-09-08T05:04:50.296Z,12.45
2023-09-08T05:07:20.125Z,12.53
2023-09-08T05:09:48.190Z,12.60
2023-09-08T05:12:15.975Z,12.67
2023-09-08T05:14:43.654Z,12.74
2023-09-08T05:17:11.160Z,12.82
2023-09-08T05:19:39.365Z,12.90
2023-09-08T05:22:08.425Z,12.96
2023-09-08T05:24:36.110Z,13.04
2023-09-08T05:27:03.997Z,13.12
2023-09-08T05:29:31.905Z,13.20
2023-09-08T05:31:59.385Z,13.27
2023-09-08T05:34:27.053Z,13.34
2023-09-08T05:36:54.751Z,13.42
2023-09-08T05:39:22.391Z,13.49
2023-09-08T05:41:49.924Z,13.56
2023-09-08T05:44:17.537Z,13.64
2023-09-08T05:46:45.202Z,13.71
2023-09-08T05:49:13.201Z,13.77
2023-09-08T05:51:40.984Z,13.82
2023-09-08T05:54:08.809Z,13.86
2023-09-08T05:56:38.118Z,13.91
2023-09-08T05:59:05.822Z,13.97
2023-09-08T06:01:34.936Z,14.04
2023-09-08T06:04:03.915Z,14.12
2023-09-08T06:06:32.009Z,14.20
2023-09-08T06:08:59.736Z,14.25
2023-09-08T06:11:27.868Z,14.30
2023-09-08T06:14:03.562Z,14.35
2023-09-08T06:16:41.999Z,14.43
2023-09-08T06:19:33.076Z,14.51
2023-09-08T06:22:13.531Z,14.59
2023-09-08T06:24:47.137Z,14.67
2023-09-08T06:27:18.579Z,14.73
2023-09-08T06:32:44.705Z,14.85
2023-09-08T06:35:25.023Z,14.91
2023-09-08T06:37:56.876Z,14.99
2023-09-08T06:40:39.640Z,15.08
2023-09-08T06:43:33.371Z,15.15
2023-09-08T06:46:20.601Z,15.24
2023-09-08T06:48:50.015Z,15.33
2023-09-08T06:51:24.638Z,15.41
2023-09-08T06:54:04.337Z,15.48
2023-09-08T06:56:43.901Z,15.53
2023-09-08T06:59:25.837Z,15.59
2023-09-08T07:02:05.374Z,15.66
2023-09-08T07:04:44.141Z,15.75
2023-09-08T07:07:25.394Z,15.84
2023-09-08T07:10:06.707Z,15.94
2023-09-08T07:12:49.926Z,16.00
2023-09-08T07:15:23.028Z,16.08
2023-09-08T07:18:09.032Z,16.16
2023-09-08T07:20:51.244Z,16.21
2023-09-08T07:23:20.610Z,16.23
2023-09-08T07:25:54.932Z,16.27
2023-09-08T07:28:44.655Z,16.31
2023-09-08T07:31:16.413Z,16.37
2023-09-08T07:33:55.156Z,16.41
2023-09-08T07:36:26.352Z,16.45
2023-09-08T07:39:01.522Z,16.48
2023-09-08T07:41:38.224Z,16.56
2023-09-08T07:44:10.801Z,16.66
2023-09-08T07:46:54.158Z,16.76
2023-09-08T07:49:41.904Z,16.84
2023-09-08T07:52:36.841Z,16.91
2023-09-08T07:55:46.590Z,16.93
2023-09-08T07:58:31.728Z,16.97
2023-09-08T08:01:42.758Z,16.98
2023-09-08T08:04:25.333Z,17.00
2023-09-08T08:06:56.698Z,17.07
2023-09-08T08:09:24.566Z,17.13
2023-09-08T08:11:52.239Z,17.19
2023-09-08T08:14:19.877Z,17.24
2023-09-08T08:16:47.636Z,17.27
2023-09-08T08:19:15.348Z,17.31
2023-09-08T08:21:43.714Z,17.35
2023-09-08T08:24:11.626Z,17.40
2023-09-08T08:26:39.269Z,17.40
2023-09-08T08:29:06.925Z,17.38
2023-09-08T08:31:34.545Z,17.37
2023-09-08T08:34:02.166Z,17.36
2023-09-08T08:36:30.185Z,17.38
2023-09-08T08:38:57.960Z,17.42
2023-09-08T08:41:25.950Z,17.45
2023-09-08T08:43:53.514Z,17.47
2023-09-08T08:46:22.833Z,17.48
2023-09-08T08:48:53.185Z,17.53
2023-09-08T08:51:20.822Z,17.57
2023-09-08T08:53:48.334Z,17.58
2023-09-08T08:56:16.011Z,17.56
2023-09-08T08:58:43.668Z,17.56
2023-09-08T09:01:12.163Z,17.57
2023-09-08T09:03:39.834Z,17.64
2023-09-08T09:06:07.469Z,17.70
2023-09-08T09:08:35.358Z,17.70
2023-09-08T09:11:03.409Z,17.74
2023-09-08T09:13:30.974Z,17.85
2023-09-08T09:16:02.624Z,17.94
2023-09-08T09:18:32.035Z,17.97
2023-09-08T09:21:00.774Z,18.00
2023-09-08T09:23:32.350Z,18.05
2023-09-08T09:26:00.311Z,18.10
2023-09-08T09:28:29.788Z,18.14
2023-09-08T09:30:59.103Z,18.15
2023-09-08T09:33:26.705Z,18.21
2023-09-08T09:35:55.053Z,18.29
2023-09-08T09:38:23.057Z,18.36
2023-09-08T09:40:50.679Z,18.40
2023-09-08T09:43:18.646Z,18.44
2023-09-08T09:45:46.370Z,18.47
2023-09-08T09:48:14.039Z,18.53
2023-09-08T09:50:42.787Z,18.62
2023-09-08T09:53:12.510Z,18.68
2023-09-08T09:55:41.708Z,18.72
2023-09-08T09:58:09.505Z,18.76
2023-09-08T10:00:38.385Z,18.78
2023-09-08T10:03:07.082Z,18.81
2023-09-08T10:05:34.858Z,18.86
2023-09-08T10:08:02.499Z,18.90
2023-09-08T10:10:31.839Z,18.92
2023-09-08T10:13:03.426Z,18.94
2023-09-08T10:15:31.978Z,18.99
2023-09-08T10:18:01.259Z,19.06
2023-09-08T10:20:30.010Z,19.13
2023-09-08T10:23:18.445Z,19.20
2023-09-08T10:25:50.759Z,19.27
2023-09-08T10:28:18.231Z,19.32
2023-09-08T10:30:45.794Z,19.31
2023-09-08T10:33:13.414Z,19.29
2023-09-08T10:35:42.063Z,19.33
2023-09-08T10:38:26.516Z,19.41
2023-09-08T10:40:54.893Z,19.47
2023-09-08T10:43:22.474Z,19.50
2023-09-08T10:45:50.500Z,19.50
2023-09-08T10:48:18.107Z,19.51
2023-09-08T10:50:45.950Z,19.55
2023-09-08T10:53:17.798Z,19.63
2023-09-08T10:56:14.729Z,19.70
2023-09-08T10:58:44.669Z,19.74
2023-09-08T11:01:20.566Z,19.77
2023-09-08T11:03:51.032Z,19.80
2023-09-08T11:06:20.236Z,19.85
2023-09-08T11:08:48.988Z,19.91
2023-09-08T11:11:17.511Z,19.95
2023-09-08T11:13:48.397Z,19.97
2023-09-08T11:16:17.325Z,20.01
2023-09-08T11:18:45.050Z,20.06
2023-09-08T11:21:12.750Z,20.10
2023-09-08T11:23:40.297Z,20.15
2023-09-08T11:26:10.004Z,20.18
2023-09-08T11:28:38.301Z,20.22
2023-09-08T11:31:06.406Z,20.27
2023-09-08T11:33:35.424Z,20.29
2023-09-08T11:36:03.026Z,20.31
2023-09-08T11:38:31.175Z,20.33
2023-09-08T11:40:59.394Z,20.36
2023-09-08T11:43:27.128Z,20.39
2023-09-08T11:45:54.691Z,20.46
2023-09-08T11:48:22.440Z,20.53
2023-09-08T11:50:49.945Z,20.56
2023-09-08T11:53:20.765Z,20.56
2023-09-08T11:55:48.963Z,20.58
2023-09-08T11:58:16.826Z,20.65
2023-09-08T12:00:44.473Z,20.70
2023-09-08T12:03:18.979Z,20.71
2023-09-08T12:05:46.537Z,20.74
2023-09-08T12:08:14.013Z,20.78
2023-09-08T12:10:42.127Z,20.80
2023-09-08T12:13:10.737Z,20.81
2023-09-08T12:15:39.496Z,20.82
2023-09-08T12:18:09.048Z,20.83
2023-09-08T12:20:37.681Z,20.84
2023-09-08T12:23:20.501Z,20.88
2023-09-08T12:25:48.821Z,20.90
2023-09-08T12:28:18.680Z,20.88
2023-09-08T12:30:46.274Z,20.90
2023-09-08T12:33:16.429Z,20.96
2023-09-08T12:35:45.780Z,21.01
2023-09-08T12:38:14.167Z,21.07
2023-09-08T12:40:42.985Z,21.12
2023-09-08T12:43:14.094Z,21.15
2023-09-08T12:45:50.456Z,21.15
2023-09-08T12:48:18.040Z,21.15
2023-09-08T12:50:45.621Z,21.17
2023-09-08T12:53:13.152Z,21.19
2023-09-08T12:55:40.719Z,21.20
2023-09-08T12:58:08.222Z,21.24
2023-09-08T13:00:35.892Z,21.28
2023-09-08T13:03:03.780Z,21.32
2023-09-08T13:05:33.547Z,21.30
2023-09-08T13:08:01.253Z,21.26
2023-09-08T13:10:28.798Z,21.27
2023-09-08T13:12:56.499Z,21.29
2023-09-08T13:15:24.635Z,21.32
2023-09-08T13:17:52.651Z,21.33
2023-09-08T13:20:20.906Z,21.34
2023-09-08T13:22:48.974Z,21.37
2023-09-08T13:25:16.618Z,21.40
2023-09-08T13:27:44.210Z,21.41
2023-09-08T13:30:15.813Z,21.44
2023-09-08T13:32:44.131Z,21.48
2023-09-08T13:35:12.499Z,21.49
2023-09-08T13:37:40.128Z,21.51
2023-09-08T13:40:09.059Z,21.50
2023-09-08T13:42:37.567Z,21.51
2023-09-08T13:45:06.155Z,21.52
2023-09-08T13:47:34.621Z,21.53
2023-09-08T13:50:05.766Z,21.54
2023-09-08T13:52:37.772Z,21.55
2023-09-08T13:57:41.305Z,21.59
2023-09-08T14:00:15.231Z,21.61
2023-09-08T14:02:50.551Z,21.61
2023-09-08T14:05:20.795Z,21.61
2023-09-08T14:08:05.327Z,21.63
2023-09-08T14:10:40.718Z,21.65
2023-09-08T14:13:12.791Z,21.62
2023-09-08T14:15:40.475Z,21.61
2023-09-08T14:18:08.145Z,21.63
2023-09-08T14:20:35.636Z,21.66
2023-09-08T14:23:03.596Z,21.68
2023-09-08T14:25:31.205Z,21.71
2023-09-08T14:28:01.100Z,21.73
2023-09-08T14:30:29.119Z,21.74
2023-09-08T14:32:56.652Z,21.71
2023-09-08T14:35:24.170Z,21.68
2023-09-08T14:37:51.741Z,21.66
2023-09-08T14:40:19.243Z,21.67
2023-09-08T14:42:46.874Z,21.68
2023-09-08T14:45:14.415Z,21.70
2023-09-08T14:47:42.105Z,21.71
2023-09-08T14:50:10.564Z,21.71
2023-09-08T14:52:38.114Z,21.71
2023-09-08T14:55:05.830Z,21.70
2023-09-08T14:57:33.554Z,21.68
2023-09-08T15:00:01.140Z,21.67
2023-09-08T15:02:28.712Z,21.67
2023-09-08T15:04:56.316Z,21.66
2023-09-08T15:07:24.012Z,21.65
2023-09-08T15:09:51.493Z,21.66
2023-09-08T15:12:19.125Z,21.65
2023-09-08T15:14:46.677Z,21.64
2023-09-08T15:17:14.282Z,21.63
2023-09-08T15:19:41.878Z,21.62
2023-09-08T15:22:09.403Z,21.61
2023-09-08T15:24:36.900Z,21.60
2023-09-08T15:27:04.942Z,21.58
2023-09-08T15:29:32.616Z,21.57
2023-09-08T15:32:00.233Z,21.54
2023-09-08T15:34:27.779Z,21.52
2023-09-08T15:36:55.533Z,21.50
2023-09-08T15:39:23.374Z,21.48
2023-09-08T15:41:51.420Z,21.45
2023-09-08T15:44:19.523Z,21.43
2023-09-08T15:46:47.380Z,21.41
2023-09-08T15:49:15.422Z,21.41
2023-09-08T15:51:42.968Z,21.39
2023-09-08T15:57:13.892Z,21.34
2023-09-08T15:59:41.681Z,21.29
2023-09-08T16:02:09.554Z,21.26
2023-09-08T16:04:37.685Z,21.23
2023-09-08T16:07:05.780Z,21.21
2023-09-08T16:09:33.333Z,21.18
2023-09-08T16:12:00.920Z,21.14
2023-09-08T16:14:28.413Z,21.11
2023-09-08T16:16:56.144Z,21.08
2023-09-08T16:19:23.722Z,21.05
2023-09-08T16:21:52.298Z,21.02
2023-09-08T16:24:19.750Z,20.99
2023-09-08T16:26:47.326Z,20.95
2023-09-08T16:29:14.927Z,20.91
2023-09-08T16:31:42.532Z,20.89
2023-09-08T16:34:10.091Z,20.85
2023-09-08T16:36:37.669Z,20.82
2023-09-08T16:39:05.539Z,20.80
2023-09-08T16:41:33.026Z,20.76
2023-09-08T16:44:00.494Z,20.73
2023-09-08T16:46:28.344Z,20.71
2023-09-08T16:48:55.913Z,20.69
2023-09-08T16:51:23.526Z,20.65
2023-09-08T16:53:50.996Z,20.62
2023-09-08T16:56:18.674Z,20.59
2023-09-08T16:58:46.272Z,20.56
2023-09-08T17:01:13.767Z,20.54
2023-09-08T17:03:41.710Z,20.52
2023-09-08T17:06:09.668Z,20.51
2023-09-08T17:08:37.113Z,20.48
2023-09-08T17:11:05.589Z,20.46
2023-09-08T17:13:34.609Z,20.44
2023-09-08T17:16:03.301Z,20.41
2023-09-08T17:18:31.287Z,20.39
2023-09-08T17:20:59.338Z,20.37
2023-09-08T17:23:27.124Z,20.35
2023-09-08T17:25:54.827Z,20.31
2023-09-08T17:28:22.583Z,20.28
2023-09-08T17:30:50.113Z,20.25
2023-09-08T17:33:17.707Z,20.22
2023-09-08T17:35:45.314Z,20.19
2023-09-08T17:38:12.932Z,20.17
2023-09-08T17:40:40.469Z,20.14
2023-09-08T17:43:08.220Z,20.11
2023-09-08T17:45:35.944Z,20.08
2023-09-08T17:48:03.663Z,20.05
2023-09-08T17:50:31.274Z,20.02
2023-09-08T17:52:58.873Z,19.99
2023-09-08T17:55:26.415Z,19.96
2023-09-08T17:57:54.217Z,19.93
2023-09-08T18:00:21.833Z,19.90
2023-09-08T18:02:49.614Z,19.86
2023-09-08T18:05:17.435Z,19.83
2023-09-08T18:07:46.178Z,19.81
2023-09-08T18:10:15.187Z,19.80
2023-09-08T18:12:42.871Z,19.78
2023-09-08T18:15:11.272Z,19.75
2023-09-08T18:17:38.871Z,19.74
2023-09-08T18:20:06.953Z,19.71
2023-09-08T18:22:35.326Z,19.69
2023-09-08T18:25:02.934Z,19.65
2023-09-08T18:27:31.320Z,19.63
2023-09-08T18:29:58.969Z,19.59
2023-09-08T18:32:26.733Z,19.55
2023-09-08T18:34:55.050Z,19.52
2023-09-08T18:37:22.826Z,19.48
2023-09-08T18:39:50.461Z,19.45
2023-09-08T18:42:18.040Z,19.41
2023-09-08T18:44:45.630Z,19.37
2023-09-08T18:47:13.210Z,19.33
2023-09-08T18:49:40.786Z,19.28
2023-09-08T18:52:08.300Z,19.24
2023-09-08T18:54:35.836Z,19.20
2023-09-08T18:57:03.554Z,19.17
2023-09-08T18:59:31.053Z,19.14
2023-09-08T19:01:59.307Z,19.11
2023-09-08T19:04:27.041Z,19.07
2023-09-08T19:06:56.877Z,19.05
2023-09-08T19:09:24.950Z,19.02
2023-09-08T19:11:52.715Z,18.97
2023-09-08T19:14:26.266Z,18.93
2023-09-08T19:16:55.638Z,18.88
2023-09-08T19:19:23.334Z,18.83
2023-09-08T19:21:50.846Z,18.78
2023-09-08T19:24:18.991Z,18.74
2023-09-08T19:26:46.600Z,18.69
2023-09-08T19:29:14.108Z,18.65
2023-09-08T19:31:41.877Z,18.61
2023-09-08T19:34:09.687Z,18.58
2023-09-08T19:36:38.747Z,18.55
2023-09-08T19:39:08.189Z,18.51
2023-09-08T19:41:36.946Z,18.47
2023-09-08T19:44:05.256Z,18.42
2023-09-08T19:46:39.624Z,18.36
2023-09-08T19:49:07.523Z,18.30
2023-09-08T19:51:35.160Z,18.25
2023-09-08T19:54:03.427Z,18.19
2023-09-08T19:56:30.929Z,18.10
2023-09-08T19:58:59.909Z,18.01
2023-09-08T20:01:29.038Z,17.95
2023-09-08T20:07:23.107Z,17.94
2023-09-08T20:09:52.838Z,17.86
2023-09-08T20:12:22.636Z,17.83
2023-09-08T20:14:49.466Z,17.79
2023-09-08T20:17:16.567Z,17.77
2023-09-08T20:19:43.413Z,17.74
2023-09-08T20:22:11.691Z,17.72
2023-09-08T20:24:40.266Z,17.68
2023-09-08T20:27:11.136Z,17.65
2023-09-08T20:29:38.692Z,17.63
2023-09-08T20:32:06.729Z,17.60
2023-09-08T20:34:33.496Z,17.58
2023-09-08T20:37:00.205Z,17.56
2023-09-08T20:39:27.050Z,17.53
2023-09-08T20:41:54.187Z,17.52
2023-09-08T20:44:21.050Z,17.49
2023-09-08T20:46:47.796Z,17.48
2023-09-08T20:49:17.184Z,17.46
2023-09-08T20:51:43.873Z,17.44
2023-09-08T20:54:10.620Z,17.42
2023-09-08T20:56:38.505Z,17.39
2023-09-08T20:59:05.537Z,17.37
2023-09-08T21:01:32.449Z,17.35
2023-09-08T21:03:59.627Z,17.34
2023-09-08T21:06:27.261Z,17.31
2023-09-08T21:08:53.993Z,17.28
2023-09-08T21:11:21.100Z,17.26
2023-09-08T21:13:47.886Z,17.23
2023-09-08T21:16:14.537Z,17.19
2023-09-08T21:18:41.486Z,17.15
2023-09-08T21:21:08.242Z,17.11
2023-09-08T21:23:35.209Z,17.07
2023-09-08T21:26:05.162Z,17.03
2023-09-08T21:28:32.501Z,17.00
2023-09-08T21:31:05.162Z,16.98
2023-09-08T21:33:32.078Z,16.95
2023-09-08T21:35:58.883Z,16.94
2023-09-08T21:38:25.566Z,16.92
2023-09-08T21:40:53.209Z,16.89
2023-09-08T21:43:19.848Z,16.86
2023-09-08T21:45:51.578Z,16.83
2023-09-08T21:48:19.072Z,16.81
2023-09-08T21:50:46.235Z,16.79
2023-09-08T21:53:12.950Z,16.77
2023-09-08T21:55:39.677Z,16.76
2023-09-08T21:58:06.378Z,16.75
2023-09-08T22:00:33.386Z,16.74
2023-09-08T22:03:00.664Z,16.74
2023-09-08T22:05:28.122Z,16.73
2023-09-08T22:07:54.987Z,16.72
2023-09-08T22:10:22.389Z,16.69
2023-09-08T22:12:49.306Z,16.68
2023-09-08T22:15:16.235Z,16.68
2023-09-08T22:17:43.303Z,16.67
2023-09-08T22:20:14.408Z,16.65
2023-09-08T22:22:41.627Z,16.63
2023-09-08T22:25:11.564Z,16.60
2023-09-08T22:27:39.003Z,16.55
2023-09-08T22:30:06.597Z,16.53
2023-09-08T22:32:33.519Z,16.50
2023-09-08T22:35:00.285Z,16.48
2023-09-08T22:37:26.964Z,16.45
2023-09-08T22:39:53.640Z,16.40
2023-09-08T22:42:20.187Z,16.37
2023-09-08T22:44:46.835Z,16.35
2023-09-08T22:47:13.518Z,16.33
2023-09-08T22:49:55.597Z,16.32
2023-09-08T22:52:22.362Z,16.29
2023-09-08T22:54:49.129Z,16.26
2023-09-08T22:57:15.845Z,16.23
2023-09-08T22:59:42.787Z,16.20
2023-09-08T23:02:09.598Z,16.17
2023-09-08T23:04:36.731Z,16.13
2023-09-08T23:07:04.102Z,16.08
2023-09-08T23:09:30.783Z,16.03
2023-09-08T23:11:58.200Z,15.99
2023-09-08T23:14:25.159Z,15.95
2023-09-08T23:16:53.219Z,15.92
2023-09-08T23:19:20.755Z,15.91
2023-09-08T23:21:48.045Z,15.89
2023-09-08T23:24:14.806Z,15.87
2023-09-08T23:26:41.662Z,15.85
2023-09-08T23:29:08.281Z,15.84
2023-09-08T23:31:35.238Z,15.83
2023-09-08T23:34:02.725Z,15.81
2023-09-08T23:36:29.755Z,15.80
2023-09-08T23:38:56.314Z,15.78
2023-09-08T23:41:23.072Z,15.77
2023-09-08T23:43:50.671Z,15.75
2023-09-08T23:46:17.486Z,15.72
2023-09-08T23:48:44.584Z,15.69
2023-09-08T23:51:11.207Z,15.66
2023-09-08T23:53:39.708Z,15.62
2023-09-08T23:56:06.641Z,15.59
2023-09-08T23:58:33.602Z,15.56
